sensor_id;sensor_type;location;lat;lon;timestamp;temperature;humidity
42683;DHT22;28293;50.930;3.464;2024-01-07T00:01:55;4.10;94.40
42683;DHT22;28293;50.930;3.464;2024-01-07T00:04:21;4.10;94.60
42683;DHT22;28293;50.930;3.464;2024-01-07T00:06:47;4.00;94.60
42683;DHT22;28293;50.930;3.464;2024-01-07T00:09:12;4.00;94.70
42683;DHT22;28293;50.930;3.464;2024-01-07T00:11:39;3.90;94.70
42683;DHT22;28293;50.930;3.464;2024-01-07T00:14:04;3.90;94.80
42683;DHT22;28293;50.930;3.464;2024-01-07T00:16:30;3.90;94.80
42683;DHT22;28293;50.930;3.464;2024-01-07T00:18:56;3.90;94.80
42683;DHT22;28293;50.930;3.464;2024-01-07T00:21:21;3.90;94.80
42683;DHT22;28293;50.930;3.464;2024-01-07T00:23:47;3.90;94.80
42683;DHT22;28293;50.930;3.464;2024-01-07T00:26:13;3.90;94.80
42683;DHT22;28293;50.930;3.464;2024-01-07T00:28:39;3.80;94.80
42683;DHT22;28293;50.930;3.464;2024-01-07T00:31:05;3.70;94.70
42683;DHT22;28293;50.930;3.464;2024-01-07T00:33:33;3.70;94.90
42683;DHT22;28293;50.930;3.464;2024-01-07T00:35:59;3.60;95.00
42683;DHT22;28293;50.930;3.464;2024-01-07T00:38:25;3.60;95.10
42683;DHT22;28293;50.930;3.464;2024-01-07T00:40:51;3.60;95.20
42683;DHT22;28293;50.930;3.464;2024-01-07T00:43:16;3.60;95.20
42683;DHT22;28293;50.930;3.464;2024-01-07T00:45:43;3.60;95.30
42683;DHT22;28293;50.930;3.464;2024-01-07T00:48:09;3.60;95.30
42683;DHT22;28293;50.930;3.464;2024-01-07T00:50:35;3.50;95.40
42683;DHT22;28293;50.930;3.464;2024-01-07T00:53:00;3.40;95.30
42683;DHT22;28293;50.930;3.464;2024-01-07T00:55:26;3.40;95.30
42683;DHT22;28293;50.930;3.464;2024-01-07T00:57:52;3.40;95.40
42683;DHT22;28293;50.930;3.464;2024-01-07T01:00:18;3.40;95.40
42683;DHT22;28293;50.930;3.464;2024-01-07T01:02:44;3.30;95.40
42683;DHT22;28293;50.930;3.464;2024-01-07T01:05:09;3.30;95.40
42683;DHT22;28293;50.930;3.464;2024-01-07T01:07:35;3.30;95.40
42683;DHT22;28293;50.930;3.464;2024-01-07T01:10:01;3.20;95.40
42683;DHT22;28293;50.930;3.464;2024-01-07T01:12:26;3.20;95.60
42683;DHT22;28293;50.930;3.464;2024-01-07T01:14:52;3.10;95.60
42683;DHT22;28293;50.930;3.464;2024-01-07T01:17:17;3.10;95.70
42683;DHT22;28293;50.930;3.464;2024-01-07T01:19:43;3.10;95.80
42683;DHT22;28293;50.930;3.464;2024-01-07T01:22:09;3.10;95.80
42683;DHT22;28293;50.930;3.464;2024-01-07T01:24:34;3.10;95.90
42683;DHT22;28293;50.930;3.464;2024-01-07T01:27:00;3.10;96.00
42683;DHT22;28293;50.930;3.464;2024-01-07T01:29:25;3.00;96.00
42683;DHT22;28293;50.930;3.464;2024-01-07T01:31:51;2.90;95.90
42683;DHT22;28293;50.930;3.464;2024-01-07T01:34:17;2.90;96.10
42683;DHT22;28293;50.930;3.464;2024-01-07T01:36:42;2.90;96.20
42683;DHT22;28293;50.930;3.464;2024-01-07T01:39:08;2.80;96.10
42683;DHT22;28293;50.930;3.464;2024-01-07T01:41:33;2.80;96.20
42683;DHT22;28293;50.930;3.464;2024-01-07T01:44:00;2.80;96.30
42683;DHT22;28293;50.930;3.464;2024-01-07T01:46:26;2.80;96.30
42683;DHT22;28293;50.930;3.464;2024-01-07T01:48:52;2.80;96.40
42683;DHT22;28293;50.930;3.464;2024-01-07T01:51:18;2.80;96.30
42683;DHT22;28293;50.930;3.464;2024-01-07T01:53:45;2.80;96.30
42683;DHT22;28293;50.930;3.464;2024-01-07T01:56:11;2.80;96.30
42683;DHT22;28293;50.930;3.464;2024-01-07T01:58:37;2.80;96.20
42683;DHT22;28293;50.930;3.464;2024-01-07T02:01:03;2.80;96.20
42683;DHT22;28293;50.930;3.464;2024-01-07T02:03:29;2.80;96.00
42683;DHT22;28293;50.930;3.464;2024-01-07T02:05:56;2.80;95.80
42683;DHT22;28293;50.930;3.464;2024-01-07T02:08:22;2.80;95.30
42683;DHT22;28293;50.930;3.464;2024-01-07T02:10:48;2.80;95.00
42683;DHT22;28293;50.930;3.464;2024-01-07T02:13:14;2.80;94.60
42683;DHT22;28293;50.930;3.464;2024-01-07T02:15:40;2.90;94.40
42683;DHT22;28293;50.930;3.464;2024-01-07T02:18:05;2.90;94.20
42683;DHT22;28293;50.930;3.464;2024-01-07T02:20:31;2.90;93.70
42683;DHT22;28293;50.930;3.464;2024-01-07T02:22:57;3.00;93.20
42683;DHT22;28293;50.930;3.464;2024-01-07T02:25:25;3.00;92.60
42683;DHT22;28293;50.930;3.464;2024-01-07T02:27:51;3.10;92.10
42683;DHT22;28293;50.930;3.464;2024-01-07T02:30:17;3.10;91.50
42683;DHT22;28293;50.930;3.464;2024-01-07T02:32:43;3.10;90.90
42683;DHT22;28293;50.930;3.464;2024-01-07T02:35:08;3.20;90.70
42683;DHT22;28293;50.930;3.464;2024-01-07T02:37:34;3.30;90.30
42683;DHT22;28293;50.930;3.464;2024-01-07T02:40:00;3.20;89.90
42683;DHT22;28293;50.930;3.464;2024-01-07T02:42:25;3.20;89.50
42683;DHT22;28293;50.930;3.464;2024-01-07T02:44:51;3.20;89.00
42683;DHT22;28293;50.930;3.464;2024-01-07T02:47:17;3.30;89.00
42683;DHT22;28293;50.930;3.464;2024-01-07T02:49:42;3.20;88.50
42683;DHT22;28293;50.930;3.464;2024-01-07T02:52:08;3.20;88.60
42683;DHT22;28293;50.930;3.464;2024-01-07T02:54:33;3.30;88.70
42683;DHT22;28293;50.930;3.464;2024-01-07T02:56:59;3.20;88.40
42683;DHT22;28293;50.930;3.464;2024-01-07T02:59:25;3.20;88.50
42683;DHT22;28293;50.930;3.464;2024-01-07T03:01:50;3.30;88.50
42683;DHT22;28293;50.930;3.464;2024-01-07T03:04:16;3.20;88.40
42683;DHT22;28293;50.930;3.464;2024-01-07T03:06:42;3.20;88.70
42683;DHT22;28293;50.930;3.464;2024-01-07T03:09:08;3.20;88.60
42683;DHT22;28293;50.930;3.464;2024-01-07T03:11:39;3.20;88.60
42683;DHT22;28293;50.930;3.464;2024-01-07T03:14:06;3.20;88.80
42683;DHT22;28293;50.930;3.464;2024-01-07T03:16:32;3.20;88.80
42683;DHT22;28293;50.930;3.464;2024-01-07T03:18:57;3.10;88.70
42683;DHT22;28293;50.930;3.464;2024-01-07T03:21:24;3.10;88.90
42683;DHT22;28293;50.930;3.464;2024-01-07T03:23:50;3.10;89.00
42683;DHT22;28293;50.930;3.464;2024-01-07T03:26:18;3.10;89.30
42683;DHT22;28293;50.930;3.464;2024-01-07T03:28:44;3.10;89.30
42683;DHT22;28293;50.930;3.464;2024-01-07T03:31:12;3.10;89.40
42683;DHT22;28293;50.930;3.464;2024-01-07T03:33:39;3.10;89.60
42683;DHT22;28293;50.930;3.464;2024-01-07T03:36:09;3.20;89.60
42683;DHT22;28293;50.930;3.464;2024-01-07T03:38:36;3.10;89.70
42683;DHT22;28293;50.930;3.464;2024-01-07T03:41:01;3.10;89.60
42683;DHT22;28293;50.930;3.464;2024-01-07T03:43:27;3.10;89.80
42683;DHT22;28293;50.930;3.464;2024-01-07T03:45:53;3.10;89.80
42683;DHT22;28293;50.930;3.464;2024-01-07T03:48:19;3.10;89.90
42683;DHT22;28293;50.930;3.464;2024-01-07T03:50:45;3.00;89.50
42683;DHT22;28293;50.930;3.464;2024-01-07T03:53:11;3.00;89.80
42683;DHT22;28293;50.930;3.464;2024-01-07T03:55:36;3.00;89.60
42683;DHT22;28293;50.930;3.464;2024-01-07T03:58:02;2.90;89.70
42683;DHT22;28293;50.930;3.464;2024-01-07T04:00:28;3.00;89.70
42683;DHT22;28293;50.930;3.464;2024-01-07T04:02:54;2.90;89.90
42683;DHT22;28293;50.930;3.464;2024-01-07T04:05:19;2.90;89.90
42683;DHT22;28293;50.930;3.464;2024-01-07T04:07:45;2.90;90.20
42683;DHT22;28293;50.930;3.464;2024-01-07T04:10:11;2.90;90.20
42683;DHT22;28293;50.930;3.464;2024-01-07T04:12:37;2.90;90.10
42683;DHT22;28293;50.930;3.464;2024-01-07T04:15:03;2.80;90.10
42683;DHT22;28293;50.930;3.464;2024-01-07T04:17:29;2.80;90.20
42683;DHT22;28293;50.930;3.464;2024-01-07T04:19:54;2.80;90.50
42683;DHT22;28293;50.930;3.464;2024-01-07T04:22:20;2.80;90.60
42683;DHT22;28293;50.930;3.464;2024-01-07T04:24:46;2.80;90.60
42683;DHT22;28293;50.930;3.464;2024-01-07T04:27:11;2.80;90.60
42683;DHT22;28293;50.930;3.464;2024-01-07T04:29:37;2.90;90.70
42683;DHT22;28293;50.930;3.464;2024-01-07T04:32:03;2.80;90.70
42683;DHT22;28293;50.930;3.464;2024-01-07T04:34:28;2.80;90.80
42683;DHT22;28293;50.930;3.464;2024-01-07T04:36:54;2.80;90.80
42683;DHT22;28293;50.930;3.464;2024-01-07T04:39:19;2.80;90.70
42683;DHT22;28293;50.930;3.464;2024-01-07T04:41:45;2.80;91.00
42683;DHT22;28293;50.930;3.464;2024-01-07T04:44:11;2.70;91.10
42683;DHT22;28293;50.930;3.464;2024-01-07T04:46:40;2.80;91.10
42683;DHT22;28293;50.930;3.464;2024-01-07T04:49:06;2.80;91.20
42683;DHT22;28293;50.930;3.464;2024-01-07T04:51:32;2.80;91.20
42683;DHT22;28293;50.930;3.464;2024-01-07T04:53:58;2.80;91.30
42683;DHT22;28293;50.930;3.464;2024-01-07T04:56:24;2.80;91.30
42683;DHT22;28293;50.930;3.464;2024-01-07T04:58:49;2.80;91.20
42683;DHT22;28293;50.930;3.464;2024-01-07T05:01:15;2.80;91.30
42683;DHT22;28293;50.930;3.464;2024-01-07T05:03:41;2.80;91.60
42683;DHT22;28293;50.930;3.464;2024-01-07T05:06:10;2.70;91.50
42683;DHT22;28293;50.930;3.464;2024-01-07T05:08:36;2.70;91.80
42683;DHT22;28293;50.930;3.464;2024-01-07T05:11:03;2.70;91.80
42683;DHT22;28293;50.930;3.464;2024-01-07T05:13:29;2.70;91.90
42683;DHT22;28293;50.930;3.464;2024-01-07T05:15:54;2.70;92.10
42683;DHT22;28293;50.930;3.464;2024-01-07T05:18:23;2.80;92.00
42683;DHT22;28293;50.930;3.464;2024-01-07T05:20:50;2.70;92.10
42683;DHT22;28293;50.930;3.464;2024-01-07T05:23:15;2.70;92.20
42683;DHT22;28293;50.930;3.464;2024-01-07T05:25:45;2.70;92.30
42683;DHT22;28293;50.930;3.464;2024-01-07T05:28:11;2.80;92.30
42683;DHT22;28293;50.930;3.464;2024-01-07T05:30:38;2.70;92.30
42683;DHT22;28293;50.930;3.464;2024-01-07T05:33:04;2.70;92.30
42683;DHT22;28293;50.930;3.464;2024-01-07T05:35:30;2.80;92.40
42683;DHT22;28293;50.930;3.464;2024-01-07T05:37:56;2.80;92.40
42683;DHT22;28293;50.930;3.464;2024-01-07T05:40:21;2.80;92.40
42683;DHT22;28293;50.930;3.464;2024-01-07T05:42:47;2.70;92.50
42683;DHT22;28293;50.930;3.464;2024-01-07T05:45:13;2.70;92.50
42683;DHT22;28293;50.930;3.464;2024-01-07T05:47:38;2.70;92.30
42683;DHT22;28293;50.930;3.464;2024-01-07T05:50:06;2.70;92.20
42683;DHT22;28293;50.930;3.464;2024-01-07T05:52:32;2.80;92.10
42683;DHT22;28293;50.930;3.464;2024-01-07T05:54:57;2.80;92.10
42683;DHT22;28293;50.930;3.464;2024-01-07T05:57:23;2.70;91.80
42683;DHT22;28293;50.930;3.464;2024-01-07T05:59:49;2.60;91.80
42683;DHT22;28293;50.930;3.464;2024-01-07T06:02:16;2.70;91.70
42683;DHT22;28293;50.930;3.464;2024-01-07T06:04:42;2.70;91.60
42683;DHT22;28293;50.930;3.464;2024-01-07T06:07:08;2.70;91.70
42683;DHT22;28293;50.930;3.464;2024-01-07T06:09:34;2.70;91.60
42683;DHT22;28293;50.930;3.464;2024-01-07T06:12:00;2.80;91.70
42683;DHT22;28293;50.930;3.464;2024-01-07T06:14:26;2.80;91.60
42683;DHT22;28293;50.930;3.464;2024-01-07T06:16:52;2.70;91.30
42683;DHT22;28293;50.930;3.464;2024-01-07T06:19:18;2.70;91.20
42683;DHT22;28293;50.930;3.464;2024-01-07T06:21:43;2.70;91.20
42683;DHT22;28293;50.930;3.464;2024-01-07T06:24:09;2.70;91.30
42683;DHT22;28293;50.930;3.464;2024-01-07T06:26:35;2.70;91.10
42683;DHT22;28293;50.930;3.464;2024-01-07T06:29:01;2.70;91.20
42683;DHT22;28293;50.930;3.464;2024-01-07T06:31:27;2.70;90.70
42683;DHT22;28293;50.930;3.464;2024-01-07T06:33:53;2.60;90.80
42683;DHT22;28293;50.930;3.464;2024-01-07T06:36:21;2.60;90.70
42683;DHT22;28293;50.930;3.464;2024-01-07T06:38:47;2.60;90.70
42683;DHT22;28293;50.930;3.464;2024-01-07T06:41:14;2.60;90.50
42683;DHT22;28293;50.930;3.464;2024-01-07T06:43:40;2.60;90.60
42683;DHT22;28293;50.930;3.464;2024-01-07T06:46:05;2.60;90.80
42683;DHT22;28293;50.930;3.464;2024-01-07T06:48:31;2.60;90.90
42683;DHT22;28293;50.930;3.464;2024-01-07T06:50:57;2.60;90.80
42683;DHT22;28293;50.930;3.464;2024-01-07T06:53:23;2.60;90.80
42683;DHT22;28293;50.930;3.464;2024-01-07T06:55:49;2.60;90.70
42683;DHT22;28293;50.930;3.464;2024-01-07T06:58:14;2.60;90.50
42683;DHT22;28293;50.930;3.464;2024-01-07T07:00:40;2.60;90.60
42683;DHT22;28293;50.930;3.464;2024-01-07T07:03:06;2.60;90.70
42683;DHT22;28293;50.930;3.464;2024-01-07T07:05:32;2.60;90.60
42683;DHT22;28293;50.930;3.464;2024-01-07T07:07:57;2.60;90.50
42683;DHT22;28293;50.930;3.464;2024-01-07T07:10:23;2.60;90.30
42683;DHT22;28293;50.930;3.464;2024-01-07T07:12:49;2.60;90.20
42683;DHT22;28293;50.930;3.464;2024-01-07T07:15:18;2.60;90.20
42683;DHT22;28293;50.930;3.464;2024-01-07T07:17:43;2.50;90.20
42683;DHT22;28293;50.930;3.464;2024-01-07T07:20:09;2.60;90.30
42683;DHT22;28293;50.930;3.464;2024-01-07T07:22:35;2.50;90.40
42683;DHT22;28293;50.930;3.464;2024-01-07T07:25:01;2.60;90.60
42683;DHT22;28293;50.930;3.464;2024-01-07T07:27:28;2.60;90.50
42683;DHT22;28293;50.930;3.464;2024-01-07T07:29:54;2.50;90.60
42683;DHT22;28293;50.930;3.464;2024-01-07T07:32:19;2.50;90.70
42683;DHT22;28293;50.930;3.464;2024-01-07T07:34:45;2.40;90.70
42683;DHT22;28293;50.930;3.464;2024-01-07T07:37:12;2.50;91.00
42683;DHT22;28293;50.930;3.464;2024-01-07T07:39:38;2.50;91.00
42683;DHT22;28293;50.930;3.464;2024-01-07T07:42:04;2.50;91.00
42683;DHT22;28293;50.930;3.464;2024-01-07T07:44:29;2.50;91.10
42683;DHT22;28293;50.930;3.464;2024-01-07T07:46:55;2.50;91.00
42683;DHT22;28293;50.930;3.464;2024-01-07T07:49:20;2.60;91.30
42683;DHT22;28293;50.930;3.464;2024-01-07T07:51:46;2.60;91.30
42683;DHT22;28293;50.930;3.464;2024-01-07T07:54:12;2.60;91.30
42683;DHT22;28293;50.930;3.464;2024-01-07T07:56:37;2.50;91.50
42683;DHT22;28293;50.930;3.464;2024-01-07T07:59:03;2.50;91.50
42683;DHT22;28293;50.930;3.464;2024-01-07T08:01:28;2.50;91.50
42683;DHT22;28293;50.930;3.464;2024-01-07T08:03:54;2.50;91.70
42683;DHT22;28293;50.930;3.464;2024-01-07T08:06:20;2.50;91.70
42683;DHT22;28293;50.930;3.464;2024-01-07T08:08:46;2.50;91.70
42683;DHT22;28293;50.930;3.464;2024-01-07T08:11:12;2.60;91.70
42683;DHT22;28293;50.930;3.464;2024-01-07T08:13:38;2.60;91.70
42683;DHT22;28293;50.930;3.464;2024-01-07T08:16:04;2.60;91.90
42683;DHT22;28293;50.930;3.464;2024-01-07T08:18:34;2.50;91.90
42683;DHT22;28293;50.930;3.464;2024-01-07T08:21:00;2.50;92.00
42683;DHT22;28293;50.930;3.464;2024-01-07T08:23:26;2.50;92.00
42683;DHT22;28293;50.930;3.464;2024-01-07T08:25:51;2.60;92.10
42683;DHT22;28293;50.930;3.464;2024-01-07T08:28:17;2.60;91.90
42683;DHT22;28293;50.930;3.464;2024-01-07T08:30:44;2.60;92.20
42683;DHT22;28293;50.930;3.464;2024-01-07T08:33:10;2.60;92.00
42683;DHT22;28293;50.930;3.464;2024-01-07T08:35:35;2.60;92.20
42683;DHT22;28293;50.930;3.464;2024-01-07T08:38:01;2.60;92.20
42683;DHT22;28293;50.930;3.464;2024-01-07T08:40:27;2.70;92.10
42683;DHT22;28293;50.930;3.464;2024-01-07T08:42:53;2.60;92.20
42683;DHT22;28293;50.930;3.464;2024-01-07T08:45:18;2.60;92.30
42683;DHT22;28293;50.930;3.464;2024-01-07T08:47:44;2.60;92.30
42683;DHT22;28293;50.930;3.464;2024-01-07T08:50:10;2.50;92.20
42683;DHT22;28293;50.930;3.464;2024-01-07T08:52:36;2.50;92.40
42683;DHT22;28293;50.930;3.464;2024-01-07T08:55:02;2.50;92.80
42683;DHT22;28293;50.930;3.464;2024-01-07T08:57:31;2.50;92.60
42683;DHT22;28293;50.930;3.464;2024-01-07T08:59:56;2.50;92.70
42683;DHT22;28293;50.930;3.464;2024-01-07T09:02:22;2.60;92.80
42683;DHT22;28293;50.930;3.464;2024-01-07T09:04:48;2.60;92.60
42683;DHT22;28293;50.930;3.464;2024-01-07T09:07:13;2.60;92.50
42683;DHT22;28293;50.930;3.464;2024-01-07T09:09:42;2.70;92.70
42683;DHT22;28293;50.930;3.464;2024-01-07T09:12:07;2.70;92.50
42683;DHT22;28293;50.930;3.464;2024-01-07T09:14:33;2.60;92.40
42683;DHT22;28293;50.930;3.464;2024-01-07T09:16:59;2.60;92.50
42683;DHT22;28293;50.930;3.464;2024-01-07T09:19:24;2.60;92.60
42683;DHT22;28293;50.930;3.464;2024-01-07T09:21:50;2.60;92.70
42683;DHT22;28293;50.930;3.464;2024-01-07T09:24:15;2.60;92.60
42683;DHT22;28293;50.930;3.464;2024-01-07T09:26:41;2.50;92.60
42683;DHT22;28293;50.930;3.464;2024-01-07T09:29:07;2.50;93.00
42683;DHT22;28293;50.930;3.464;2024-01-07T09:31:33;2.60;93.10
42683;DHT22;28293;50.930;3.464;2024-01-07T09:33:58;2.50;92.80
42683;DHT22;28293;50.930;3.464;2024-01-07T09:36:24;2.50;93.20
42683;DHT22;28293;50.930;3.464;2024-01-07T09:38:49;2.60;93.10
42683;DHT22;28293;50.930;3.464;2024-01-07T09:41:15;2.60;93.00
42683;DHT22;28293;50.930;3.464;2024-01-07T09:43:41;2.50;92.90
42683;DHT22;28293;50.930;3.464;2024-01-07T09:46:07;2.50;93.00
42683;DHT22;28293;50.930;3.464;2024-01-07T09:48:32;2.60;93.20
42683;DHT22;28293;50.930;3.464;2024-01-07T09:51:00;2.60;93.10
42683;DHT22;28293;50.930;3.464;2024-01-07T09:53:30;2.60;93.00
42683;DHT22;28293;50.930;3.464;2024-01-07T09:56:11;2.50;93.00
42683;DHT22;28293;50.930;3.464;2024-01-07T09:58:41;2.50;93.20
42683;DHT22;28293;50.930;3.464;2024-01-07T10:01:08;2.50;93.20
42683;DHT22;28293;50.930;3.464;2024-01-07T10:03:33;2.50;93.30
42683;DHT22;28293;50.930;3.464;2024-01-07T10:05:59;2.40;93.30
42683;DHT22;28293;50.930;3.464;2024-01-07T10:08:25;2.40;93.30
42683;DHT22;28293;50.930;3.464;2024-01-07T10:10:50;2.50;93.40
42683;DHT22;28293;50.930;3.464;2024-01-07T10:13:16;2.50;93.20
42683;DHT22;28293;50.930;3.464;2024-01-07T10:15:42;2.50;93.20
42683;DHT22;28293;50.930;3.464;2024-01-07T10:18:07;2.50;93.30
42683;DHT22;28293;50.930;3.464;2024-01-07T10:20:34;2.40;93.10
42683;DHT22;28293;50.930;3.464;2024-01-07T10:23:01;2.30;93.20
42683;DHT22;28293;50.930;3.464;2024-01-07T10:25:27;2.40;93.30
42683;DHT22;28293;50.930;3.464;2024-01-07T10:27:53;2.40;93.20
42683;DHT22;28293;50.930;3.464;2024-01-07T10:30:19;2.40;92.90
42683;DHT22;28293;50.930;3.464;2024-01-07T10:32:46;2.40;92.90
42683;DHT22;28293;50.930;3.464;2024-01-07T10:35:18;2.40;92.70
42683;DHT22;28293;50.930;3.464;2024-01-07T10:37:45;2.40;92.60
42683;DHT22;28293;50.930;3.464;2024-01-07T10:40:11;2.40;92.80
42683;DHT22;28293;50.930;3.464;2024-01-07T10:42:38;2.40;92.70
42683;DHT22;28293;50.930;3.464;2024-01-07T10:45:04;2.40;92.70
42683;DHT22;28293;50.930;3.464;2024-01-07T10:47:31;2.40;92.50
42683;DHT22;28293;50.930;3.464;2024-01-07T10:49:58;2.30;92.50
42683;DHT22;28293;50.930;3.464;2024-01-07T10:52:26;2.30;92.20
42683;DHT22;28293;50.930;3.464;2024-01-07T10:54:56;2.40;92.00
42683;DHT22;28293;50.930;3.464;2024-01-07T10:59:47;2.40;91.80
42683;DHT22;28293;50.930;3.464;2024-01-07T11:02:15;2.40;91.50
42683;DHT22;28293;50.930;3.464;2024-01-07T11:04:51;2.50;91.70
42683;DHT22;28293;50.930;3.464;2024-01-07T11:07:40;2.50;91.40
42683;DHT22;28293;50.930;3.464;2024-01-07T11:10:18;2.40;91.40
42683;DHT22;28293;50.930;3.464;2024-01-07T11:12:56;2.40;91.10
42683;DHT22;28293;50.930;3.464;2024-01-07T11:15:53;2.40;91.00
42683;DHT22;28293;50.930;3.464;2024-01-07T11:18:21;2.30;90.90
42683;DHT22;28293;50.930;3.464;2024-01-07T11:20:47;2.40;91.10
42683;DHT22;28293;50.930;3.464;2024-01-07T11:23:30;2.40;90.50
42683;DHT22;28293;50.930;3.464;2024-01-07T11:26:05;2.30;89.70
42683;DHT22;28293;50.930;3.464;2024-01-07T11:28:54;2.40;89.60
42683;DHT22;28293;50.930;3.464;2024-01-07T11:31:43;2.30;89.70
42683;DHT22;28293;50.930;3.464;2024-01-07T11:34:09;2.40;89.70
42683;DHT22;28293;50.930;3.464;2024-01-07T11:36:38;2.50;89.60
42683;DHT22;28293;50.930;3.464;2024-01-07T11:39:07;2.40;89.40
42683;DHT22;28293;50.930;3.464;2024-01-07T11:41:34;2.50;89.80
42683;DHT22;28293;50.930;3.464;2024-01-07T11:44:00;2.40;89.40
42683;DHT22;28293;50.930;3.464;2024-01-07T11:46:27;2.40;89.60
42683;DHT22;28293;50.930;3.464;2024-01-07T11:48:54;2.40;89.80
42683;DHT22;28293;50.930;3.464;2024-01-07T11:51:28;2.40;89.80
42683;DHT22;28293;50.930;3.464;2024-01-07T11:53:54;2.40;89.80
42683;DHT22;28293;50.930;3.464;2024-01-07T11:56:20;2.40;89.80
42683;DHT22;28293;50.930;3.464;2024-01-07T11:58:46;2.40;89.70
42683;DHT22;28293;50.930;3.464;2024-01-07T12:01:14;2.40;89.80
42683;DHT22;28293;50.930;3.464;2024-01-07T12:03:39;2.40;90.00
42683;DHT22;28293;50.930;3.464;2024-01-07T12:06:06;2.40;90.00
42683;DHT22;28293;50.930;3.464;2024-01-07T12:08:32;2.40;90.10
42683;DHT22;28293;50.930;3.464;2024-01-07T12:10:59;2.40;90.10
42683;DHT22;28293;50.930;3.464;2024-01-07T12:13:25;2.40;90.20
42683;DHT22;28293;50.930;3.464;2024-01-07T12:15:51;2.40;90.60
42683;DHT22;28293;50.930;3.464;2024-01-07T12:18:17;2.50;90.90
42683;DHT22;28293;50.930;3.464;2024-01-07T12:20:54;2.50;90.70
42683;DHT22;28293;50.930;3.464;2024-01-07T12:23:20;2.50;90.90
42683;DHT22;28293;50.930;3.464;2024-01-07T12:25:46;2.40;90.80
42683;DHT22;28293;50.930;3.464;2024-01-07T12:28:11;2.40;90.90
42683;DHT22;28293;50.930;3.464;2024-01-07T12:30:37;2.50;91.10
42683;DHT22;28293;50.930;3.464;2024-01-07T12:33:04;2.40;90.90
42683;DHT22;28293;50.930;3.464;2024-01-07T12:35:31;2.40;91.00
42683;DHT22;28293;50.930;3.464;2024-01-07T12:37:56;2.40;90.70
42683;DHT22;28293;50.930;3.464;2024-01-07T12:40:24;2.30;90.90
42683;DHT22;28293;50.930;3.464;2024-01-07T12:42:52;2.40;91.30
42683;DHT22;28293;50.930;3.464;2024-01-07T12:45:18;2.40;91.00
42683;DHT22;28293;50.930;3.464;2024-01-07T12:47:44;2.30;90.10
42683;DHT22;28293;50.930;3.464;2024-01-07T12:50:11;2.20;90.10
42683;DHT22;28293;50.930;3.464;2024-01-07T12:52:38;2.20;90.30
42683;DHT22;28293;50.930;3.464;2024-01-07T12:55:05;2.20;90.10
42683;DHT22;28293;50.930;3.464;2024-01-07T12:57:32;2.20;90.40
42683;DHT22;28293;50.930;3.464;2024-01-07T12:59:57;2.10;90.00
42683;DHT22;28293;50.930;3.464;2024-01-07T13:02:23;2.10;90.30
42683;DHT22;28293;50.930;3.464;2024-01-07T13:04:50;2.10;90.00
42683;DHT22;28293;50.930;3.464;2024-01-07T13:07:16;2.20;90.00
42683;DHT22;28293;50.930;3.464;2024-01-07T13:09:41;2.30;89.90
42683;DHT22;28293;50.930;3.464;2024-01-07T13:12:07;2.30;89.80
42683;DHT22;28293;50.930;3.464;2024-01-07T13:14:33;2.30;89.70
42683;DHT22;28293;50.930;3.464;2024-01-07T13:16:59;2.20;89.20
42683;DHT22;28293;50.930;3.464;2024-01-07T13:19:24;2.20;89.60
42683;DHT22;28293;50.930;3.464;2024-01-07T13:21:52;2.20;89.70
42683;DHT22;28293;50.930;3.464;2024-01-07T13:24:20;2.20;89.60
42683;DHT22;28293;50.930;3.464;2024-01-07T13:26:47;2.20;89.90
42683;DHT22;28293;50.930;3.464;2024-01-07T13:29:13;2.20;90.00
42683;DHT22;28293;50.930;3.464;2024-01-07T13:31:38;2.30;90.10
42683;DHT22;28293;50.930;3.464;2024-01-07T13:34:04;2.40;89.90
42683;DHT22;28293;50.930;3.464;2024-01-07T13:36:29;2.40;89.70
42683;DHT22;28293;50.930;3.464;2024-01-07T13:38:55;2.40;89.70
42683;DHT22;28293;50.930;3.464;2024-01-07T13:41:21;2.40;89.70
42683;DHT22;28293;50.930;3.464;2024-01-07T13:43:46;2.40;89.70
42683;DHT22;28293;50.930;3.464;2024-01-07T13:46:12;2.30;89.90
42683;DHT22;28293;50.930;3.464;2024-01-07T13:48:38;2.40;90.00
42683;DHT22;28293;50.930;3.464;2024-01-07T13:51:06;2.40;90.10
42683;DHT22;28293;50.930;3.464;2024-01-07T13:53:32;2.40;89.90
42683;DHT22;28293;50.930;3.464;2024-01-07T13:55:57;2.40;89.90
42683;DHT22;28293;50.930;3.464;2024-01-07T13:58:23;2.20;89.90
42683;DHT22;28293;50.930;3.464;2024-01-07T14:00:49;2.30;89.80
42683;DHT22;28293;50.930;3.464;2024-01-07T14:03:15;2.20;89.80
42683;DHT22;28293;50.930;3.464;2024-01-07T14:05:41;2.20;90.00
42683;DHT22;28293;50.930;3.464;2024-01-07T14:08:07;2.20;89.80
42683;DHT22;28293;50.930;3.464;2024-01-07T14:10:32;2.20;89.70
42683;DHT22;28293;50.930;3.464;2024-01-07T14:12:58;2.10;89.60
42683;DHT22;28293;50.930;3.464;2024-01-07T14:15:24;2.10;89.60
42683;DHT22;28293;50.930;3.464;2024-01-07T14:17:49;2.10;89.30
42683;DHT22;28293;50.930;3.464;2024-01-07T14:20:15;2.10;89.50
42683;DHT22;28293;50.930;3.464;2024-01-07T14:22:41;2.10;89.50
42683;DHT22;28293;50.930;3.464;2024-01-07T14:25:06;2.00;89.40
42683;DHT22;28293;50.930;3.464;2024-01-07T14:27:32;2.00;89.30
42683;DHT22;28293;50.930;3.464;2024-01-07T14:29:58;2.10;89.00
42683;DHT22;28293;50.930;3.464;2024-01-07T14:32:24;2.00;89.00
42683;DHT22;28293;50.930;3.464;2024-01-07T14:34:49;2.10;89.30
42683;DHT22;28293;50.930;3.464;2024-01-07T14:37:16;2.10;89.10
42683;DHT22;28293;50.930;3.464;2024-01-07T14:39:42;2.00;89.10
42683;DHT22;28293;50.930;3.464;2024-01-07T14:42:08;1.90;89.20
42683;DHT22;28293;50.930;3.464;2024-01-07T14:44:34;2.00;89.30
42683;DHT22;28293;50.930;3.464;2024-01-07T14:47:00;1.90;89.40
42683;DHT22;28293;50.930;3.464;2024-01-07T14:49:25;2.00;89.50
42683;DHT22;28293;50.930;3.464;2024-01-07T14:51:51;1.90;89.60
42683;DHT22;28293;50.930;3.464;2024-01-07T14:54:16;1.90;89.60
42683;DHT22;28293;50.930;3.464;2024-01-07T14:56:42;2.00;89.80
42683;DHT22;28293;50.930;3.464;2024-01-07T14:59:08;1.90;89.30
42683;DHT22;28293;50.930;3.464;2024-01-07T15:01:34;1.90;89.40
42683;DHT22;28293;50.930;3.464;2024-01-07T15:04:00;1.80;89.00
42683;DHT22;28293;50.930;3.464;2024-01-07T15:06:25;1.80;88.70
42683;DHT22;28293;50.930;3.464;2024-01-07T15:08:52;1.90;89.10
42683;DHT22;28293;50.930;3.464;2024-01-07T15:11:21;1.90;89.00
42683;DHT22;28293;50.930;3.464;2024-01-07T15:13:47;2.00;88.80
42683;DHT22;28293;50.930;3.464;2024-01-07T15:16:13;2.00;88.50
42683;DHT22;28293;50.930;3.464;2024-01-07T15:18:38;1.90;88.60
42683;DHT22;28293;50.930;3.464;2024-01-07T15:21:04;1.90;88.70
42683;DHT22;28293;50.930;3.464;2024-01-07T15:23:30;2.00;89.00
42683;DHT22;28293;50.930;3.464;2024-01-07T15:25:55;2.00;89.00
42683;DHT22;28293;50.930;3.464;2024-01-07T15:28:21;2.00;89.10
42683;DHT22;28293;50.930;3.464;2024-01-07T15:30:46;1.90;89.30
42683;DHT22;28293;50.930;3.464;2024-01-07T15:33:13;1.90;89.70
42683;DHT22;28293;50.930;3.464;2024-01-07T15:35:38;1.90;89.80
42683;DHT22;28293;50.930;3.464;2024-01-07T15:38:04;1.80;89.00
42683;DHT22;28293;50.930;3.464;2024-01-07T15:40:30;1.80;89.00
42683;DHT22;28293;50.930;3.464;2024-01-07T15:42:56;1.80;89.00